Time;durP1;ratioP1;P1;durP2;ratioP2;P2;SDS_P1;SDS_P2;PMS_P1;PMS_P2;Temp;Humidity;BMP_temperature;BMP_pressure;BME280_temperature;BME280_humidity;BME280_pressure;Samples;Min_cycle;Max_cycle;Signal;HPM_P1;HPM_P2
2021/09/28 00:00:19;;;;;;;20.65;18.70;;;;;;;;;;5030794;28;20548;-58
2021/09/28 00:02:46;;;;;;;22.65;20.48;;;;;;;;;;5029824;28;20053;-59
2021/09/28 00:05:13;;;;;;;21.63;19.30;;;;;;;;;;5030156;28;20091;-57
2021/09/28 00:07:39;;;;;;;24.65;22.05;;;;;;;;;;5027544;28;20052;-58
2021/09/28 00:10:06;;;;;;;22.35;20.20;;;;;;;;;;5031951;28;20544;-58
2021/09/28 00:12:33;;;;;;;20.95;19.17;;;;;;;;;;5031028;28;20079;-57
2021/09/28 00:15:00;;;;;;;24.65;19.55;;;;;;;;;;5029586;28;20060;-57
2021/09/28 00:17:27;;;;;;;22.40;20.58;;;;;;;;;;5029578;28;20045;-58
2021/09/28 00:19:53;;;;;;;21.67;19.70;;;;;;;;;;5026332;28;20501;-58
2021/09/28 00:22:20;;;;;;;22.77;20.67;;;;;;;;;;5031054;28;20045;-57
2021/09/28 00:24:47;;;;;;;22.58;20.48;;;;;;;;;;5029785;28;20045;-58
2021/09/28 00:27:14;;;;;;;22.10;19.95;;;;;;;;;;5029153;28;20092;-56
2021/09/28 00:29:41;;;;;;;22.40;20.10;;;;;;;;;;5029091;28;20045;-58
2021/09/28 00:32:07;;;;;;;21.55;19.70;;;;;;;;;;5029372;28;20116;-60
2021/09/28 00:34:34;;;;;;;20.17;18.35;;;;;;;;;;5031340;28;20042;-57
2021/09/28 00:37:01;;;;;;;22.60;19.83;;;;;;;;;;5030208;28;20046;-57
2021/09/28 00:39:28;;;;;;;21.90;19.83;;;;;;;;;;5028073;28;20033;-57
2021/09/28 00:41:54;;;;;;;21.77;19.65;;;;;;;;;;5029390;28;20565;-57
2021/09/28 00:44:33;;;;;;;22.13;20.38;;;;;;;;;;5029524;28;20390;-58
2021/09/28 00:47:00;;;;;;;20.75;18.92;;;;;;;;;;5029917;28;20041;-58
2021/09/28 00:49:27;;;;;;;21.67;19.00;;;;;;;;;;5027954;28;20480;-57
2021/09/28 00:51:54;;;;;;;19.73;17.98;;;;;;;;;;5029309;28;20119;-56
2021/09/28 00:54:21;;;;;;;20.50;18.70;;;;;;;;;;5031324;28;20084;-57
2021/09/28 00:56:47;;;;;;;22.92;20.75;;;;;;;;;;5029992;28;20095;-58
2021/09/28 00:59:14;;;;;;;22.83;20.67;;;;;;;;;;5029045;28;20069;-57
2021/09/28 01:01:41;;;;;;;22.92;20.50;;;;;;;;;;5028450;28;20116;-59
2021/09/28 01:04:08;;;;;;;20.58;18.70;;;;;;;;;;5030705;28;20049;-57
2021/09/28 01:06:35;;;;;;;20.77;18.80;;;;;;;;;;5025092;28;20045;-59
2021/09/28 01:09:01;;;;;;;20.63;18.50;;;;;;;;;;5029729;28;20053;-58
2021/09/28 01:11:28;;;;;;;21.20;18.98;;;;;;;;;;5030179;28;20076;-58
2021/09/28 01:13:55;;;;;;;19.63;17.63;;;;;;;;;;5030391;28;20045;-60
2021/09/28 01:16:24;;;;;;;22.02;19.80;;;;;;;;;;5030275;28;20048;-59
2021/09/28 01:18:50;;;;;;;20.42;18.52;;;;;;;;;;5025492;28;20049;-58
2021/09/28 01:21:19;;;;;;;19.77;18.13;;;;;;;;;;5023733;28;20038;-60
2021/09/28 01:23:46;;;;;;;20.27;18.27;;;;;;;;;;5030762;28;20041;-59
2021/09/28 01:26:17;;;;;;;22.02;20.02;;;;;;;;;;5027267;28;20034;-57
2021/09/28 01:28:46;;;;;;;21.02;19.05;;;;;;;;;;5030097;28;20037;-58
2021/09/28 01:31:13;;;;;;;19.77;17.88;;;;;;;;;;5025098;28;20124;-57
2021/09/28 01:33:40;;;;;;;19.75;17.70;;;;;;;;;;5027964;28;20049;-58
2021/09/28 01:36:07;;;;;;;20.55;18.65;;;;;;;;;;5028944;28;20053;-58
2021/09/28 01:38:34;;;;;;;23.63;20.30;;;;;;;;;;5018189;28;20064;-58
2021/09/28 01:41:00;;;;;;;19.63;18.02;;;;;;;;;;5028264;28;20500;-58
2021/09/28 01:43:27;;;;;;;20.52;18.52;;;;;;;;;;5026355;28;20037;-60
2021/09/28 01:45:55;;;;;;;19.65;17.85;;;;;;;;;;5028220;28;20141;-58
2021/09/28 01:48:24;;;;;;;20.60;18.42;;;;;;;;;;5029899;28;20069;-59
2021/09/28 01:50:52;;;;;;;22.15;19.67;;;;;;;;;;5019286;28;20494;-59
2021/09/28 01:53:21;;;;;;;22.13;19.92;;;;;;;;;;5020450;28;20430;-58
2021/09/28 01:55:47;;;;;;;21.40;19.23;;;;;;;;;;5023681;28;20072;-58
2021/09/28 01:58:14;;;;;;;20.63;18.75;;;;;;;;;;5027925;28;20108;-59
2021/09/28 02:00:41;;;;;;;20.55;18.60;;;;;;;;;;5027235;28;20140;-58
2021/09/28 02:03:08;;;;;;;20.92;19.17;;;;;;;;;;5027556;28;20037;-57
2021/09/28 02:05:35;;;;;;;21.67;19.67;;;;;;;;;;5028167;28;20097;-57
2021/09/28 02:08:02;;;;;;;22.40;20.33;;;;;;;;;;5027882;28;20073;-58
2021/09/28 02:10:30;;;;;;;25.10;20.70;;;;;;;;;;5027195;28;20077;-58
2021/09/28 02:13:00;;;;;;;20.42;18.35;;;;;;;;;;5024956;28;20056;-58
2021/09/28 02:15:26;;;;;;;20.45;18.63;;;;;;;;;;5017838;28;20048;-60
2021/09/28 02:17:53;;;;;;;20.52;18.77;;;;;;;;;;5027311;28;20468;-56
2021/09/28 02:20:20;;;;;;;23.20;20.70;;;;;;;;;;5025066;28;20041;-58
2021/09/28 02:22:47;;;;;;;19.75;18.10;;;;;;;;;;5028688;28;20465;-59
2021/09/28 02:25:16;;;;;;;22.70;20.40;;;;;;;;;;5024685;28;20038;-57
2021/09/28 02:27:43;;;;;;;20.80;18.65;;;;;;;;;;5027051;28;20083;-57
2021/09/28 02:30:10;;;;;;;19.88;18.02;;;;;;;;;;5027872;28;20056;-57
2021/09/28 02:32:37;;;;;;;20.38;18.40;;;;;;;;;;5029023;28;20046;-59
2021/09/28 02:35:04;;;;;;;19.98;17.92;;;;;;;;;;5028881;28;20041;-58
2021/09/28 02:37:31;;;;;;;21.20;19.33;;;;;;;;;;5027558;28;20104;-58
2021/09/28 02:39:57;;;;;;;20.88;19.10;;;;;;;;;;5019482;28;20074;-58
2021/09/28 02:42:24;;;;;;;22.98;20.90;;;;;;;;;;5007695;28;20556;-58
2021/09/28 02:44:52;;;;;;;21.60;19.17;;;;;;;;;;4999997;28;20489;-59
2021/09/28 02:47:18;;;;;;;21.90;19.77;;;;;;;;;;5008569;28;20045;-59
2021/09/28 02:49:45;;;;;;;21.77;19.85;;;;;;;;;;5007878;28;20038;-59
2021/09/28 02:52:12;;;;;;;24.35;21.20;;;;;;;;;;5011144;28;20181;-58
2021/09/28 02:54:39;;;;;;;21.88;19.73;;;;;;;;;;5013139;28;20034;-58
2021/09/28 02:57:06;;;;;;;21.15;19.02;;;;;;;;;;5011635;28;20089;-58
2021/09/28 02:59:33;;;;;;;23.65;21.38;;;;;;;;;;5007021;28;20494;-59
2021/09/28 03:01:59;;;;;;;23.67;21.65;;;;;;;;;;5002526;28;20044;-59
2021/09/28 03:04:26;;;;;;;23.23;20.90;;;;;;;;;;5012095;28;20045;-60
2021/09/28 03:06:53;;;;;;;26.48;21.85;;;;;;;;;;5010863;28;20123;-59
2021/09/28 03:09:20;;;;;;;22.88;20.80;;;;;;;;;;5009396;28;20050;-58
2021/09/28 03:11:47;;;;;;;21.33;19.33;;;;;;;;;;5005752;28;20041;-59
2021/09/28 03:14:13;;;;;;;22.45;20.10;;;;;;;;;;5011629;28;20116;-59
2021/09/28 03:16:40;;;;;;;24.70;22.10;;;;;;;;;;5011334;28;20061;-59
2021/09/28 03:19:07;;;;;;;24.20;21.92;;;;;;;;;;5008868;28;20034;-59
2021/09/28 03:21:34;;;;;;;21.48;19.67;;;;;;;;;;5012504;28;20444;-58
2021/09/28 03:24:03;;;;;;;23.13;20.75;;;;;;;;;;5011812;28;20067;-60
2021/09/28 03:26:30;;;;;;;25.40;21.40;;;;;;;;;;5012124;28;20053;-58
2021/09/28 03:28:56;;;;;;;23.60;19.88;;;;;;;;;;5011447;28;20069;-58
2021/09/28 03:31:23;;;;;;;22.45;20.27;;;;;;;;;;5011314;28;20838;-58
2021/09/28 03:33:50;;;;;;;22.98;19.90;;;;;;;;;;5012006;28;20046;-58
2021/09/28 03:36:16;;;;;;;23.20;21.00;;;;;;;;;;5011864;28;20120;-59
2021/09/28 03:38:43;;;;;;;24.00;21.58;;;;;;;;;;5005122;28;20141;-59
2021/09/28 03:41:10;;;;;;;25.23;22.52;;;;;;;;;;5024884;28;20049;-58
2021/09/28 03:43:37;;;;;;;28.55;22.60;;;;;;;;;;5031127;28;20041;-58
2021/09/28 03:46:03;;;;;;;26.65;23.80;;;;;;;;;;5030738;28;20084;-59
2021/09/28 03:48:30;;;;;;;24.40;21.85;;;;;;;;;;5028773;28;20046;-59
2021/09/28 03:50:57;;;;;;;27.40;21.27;;;;;;;;;;5022611;28;20091;-60
2021/09/28 03:53:23;;;;;;;23.30;21.02;;;;;;;;;;5031055;28;20072;-58
2021/09/28 03:55:50;;;;;;;28.58;22.02;;;;;;;;;;5031650;28;20050;-59
2021/09/28 03:58:17;;;;;;;24.55;22.05;;;;;;;;;;5030799;28;20477;-59
2021/09/28 04:00:44;;;;;;;23.10;20.65;;;;;;;;;;5029541;28;20067;-58
2021/09/28 04:03:11;;;;;;;22.05;19.95;;;;;;;;;;5029768;28;20477;-59
2021/09/28 04:05:38;;;;;;;22.05;20.02;;;;;;;;;;5032352;28;20065;-59
2021/09/28 04:08:05;;;;;;;21.20;19.17;;;;;;;;;;5031527;28;20116;-59
2021/09/28 04:10:37;;;;;;;21.15;19.08;;;;;;;;;;5028360;28;20099;-59
2021/09/28 04:13:05;;;;;;;20.58;18.75;;;;;;;;;;5031733;28;20083;-59
2021/09/28 04:15:39;;;;;;;20.35;18.63;;;;;;;;;;5031125;28;20049;-59
2021/09/28 04:18:06;;;;;;;21.33;19.17;;;;;;;;;;5030314;28;20046;-59
2021/09/28 04:20:34;;;;;;;19.75;17.85;;;;;;;;;;5028091;28;20792;-59
2021/09/28 04:23:01;;;;;;;23.48;21.33;;;;;;;;;;5028105;28;20065;-59
2021/09/28 04:25:27;;;;;;;22.10;19.30;;;;;;;;;;5028914;28;20421;-60
2021/09/28 04:27:54;;;;;;;20.75;18.55;;;;;;;;;;5031414;28;20103;-59
2021/09/28 04:30:21;;;;;;;20.70;18.85;;;;;;;;;;5029240;28;20088;-59
2021/09/28 04:32:48;;;;;;;22.50;18.25;;;;;;;;;;5028959;28;20038;-61
2021/09/28 04:35:14;;;;;;;22.38;20.02;;;;;;;;;;5030135;28;20044;-60
2021/09/28 04:37:41;;;;;;;22.63;19.45;;;;;;;;;;5027726;28;20080;-59
2021/09/28 04:40:08;;;;;;;20.42;18.40;;;;;;;;;;5027993;28;20045;-59
2021/09/28 04:42:35;;;;;;;19.75;17.40;;;;;;;;;;5026729;28;20084;-59
2021/09/28 04:45:03;;;;;;;21.50;19.30;;;;;;;;;;5030778;28;20076;-58
2021/09/28 04:47:30;;;;;;;19.10;17.27;;;;;;;;;;5025740;28;20041;-58
2021/09/28 04:49:57;;;;;;;20.15;18.15;;;;;;;;;;5019542;28;20464;-60
2021/09/28 04:52:24;;;;;;;19.02;17.10;;;;;;;;;;5030748;28;20448;-58
2021/09/28 04:54:50;;;;;;;23.00;18.85;;;;;;;;;;5030411;28;20048;-59
2021/09/28 04:57:18;;;;;;;22.63;20.23;;;;;;;;;;5028202;28;20044;-59
2021/09/28 04:59:45;;;;;;;100.78;21.23;;;;;;;;;;5028572;28;20115;-59
2021/09/28 05:02:11;;;;;;;236.23;24.13;;;;;;;;;;5030540;28;20088;-59
2021/09/28 05:04:38;;;;;;;169.65;22.02;;;;;;;;;;5029249;28;20512;-58
2021/09/28 05:07:05;;;;;;;242.02;24.13;;;;;;;;;;5029340;28;20605;-59
2021/09/28 05:09:32;;;;;;;38.05;19.48;;;;;;;;;;5028808;28;20049;-58
2021/09/28 05:11:59;;;;;;;36.13;16.92;;;;;;;;;;5029425;28;20766;-59
2021/09/28 05:14:26;;;;;;;41.80;15.73;;;;;;;;;;5028393;28;20108;-59
2021/09/28 05:16:53;;;;;;;17.58;16.02;;;;;;;;;;5028731;28;20155;-59
2021/09/28 05:19:19;;;;;;;96.78;16.15;;;;;;;;;;5029181;28;20064;-60
2021/09/28 05:21:46;;;;;;;16.65;15.07;;;;;;;;;;5022487;28;20394;-59
2021/09/28 05:24:13;;;;;;;35.30;14.05;;;;;;;;;;5025094;28;20486;-61
2021/09/28 05:26:40;;;;;;;16.17;15.05;;;;;;;;;;5012374;28;20591;-61
2021/09/28 05:29:06;;;;;;;22.40;20.42;;;;;;;;;;5027858;28;20104;-61
2021/09/28 05:31:33;;;;;;;20.00;18.23;;;;;;;;;;5017866;28;20045;-61
2021/09/28 05:34:00;;;;;;;19.90;18.10;;;;;;;;;;5028781;28;20081;-61
2021/09/28 05:36:27;;;;;;;25.52;18.92;;;;;;;;;;5028450;28;20065;-62
2021/09/28 05:38:54;;;;;;;20.05;18.05;;;;;;;;;;5028313;28;20037;-60
2021/09/28 05:41:20;;;;;;;20.40;18.50;;;;;;;;;;5029100;28;20065;-61
2021/09/28 05:43:47;;;;;;;21.20;18.65;;;;;;;;;;5016984;28;20069;-61
2021/09/28 05:46:14;;;;;;;21.30;18.73;;;;;;;;;;5028563;28;20058;-61
2021/09/28 05:48:41;;;;;;;19.92;18.02;;;;;;;;;;5028713;28;20121;-60
2021/09/28 05:51:13;;;;;;;21.02;19.02;;;;;;;;;;5030040;28;20045;-62
2021/09/28 05:53:40;;;;;;;22.10;18.20;;;;;;;;;;5029867;28;20052;-61
2021/09/28 05:56:06;;;;;;;18.95;17.17;;;;;;;;;;5028199;28;20061;-63
2021/09/28 05:58:33;;;;;;;18.98;17.17;;;;;;;;;;5021685;28;20041;-61
2021/09/28 06:01:00;;;;;;;20.10;18.17;;;;;;;;;;5018169;28;20037;-61
2021/09/28 06:03:27;;;;;;;18.85;17.05;;;;;;;;;;5030119;28;20045;-60
2021/09/28 06:05:54;;;;;;;20.30;18.33;;;;;;;;;;5028243;28;20575;-60
2021/09/28 06:08:20;;;;;;;22.83;19.15;;;;;;;;;;5027055;28;20041;-62
2021/09/28 06:10:47;;;;;;;18.98;17.13;;;;;;;;;;5027412;28;20053;-61
2021/09/28 06:13:15;;;;;;;19.33;17.35;;;;;;;;;;5028067;28;20068;-62
2021/09/28 06:15:41;;;;;;;18.92;17.05;;;;;;;;;;5028221;28;20489;-60
2021/09/28 06:18:08;;;;;;;20.00;18.00;;;;;;;;;;5025856;28;20058;-61
2021/09/28 06:20:35;;;;;;;20.40;16.80;;;;;;;;;;5023485;28;20042;-61
2021/09/28 06:23:02;;;;;;;21.20;16.98;;;;;;;;;;5029066;28;20091;-61
2021/09/28 06:25:28;;;;;;;16.50;15.07;;;;;;;;;;5026395;28;20091;-61
2021/09/28 06:27:55;;;;;;;17.33;15.65;;;;;;;;;;5029365;28;20069;-62
2021/09/28 06:30:22;;;;;;;20.27;18.60;;;;;;;;;;5027958;28;20067;-60
2021/09/28 06:32:49;;;;;;;20.92;15.68;;;;;;;;;;5027708;28;20045;-60
2021/09/28 06:35:17;;;;;;;18.10;16.27;;;;;;;;;;5025017;28;20065;-61
2021/09/28 06:37:43;;;;;;;17.25;15.02;;;;;;;;;;5017812;28;20038;-62
2021/09/28 06:40:10;;;;;;;18.45;16.58;;;;;;;;;;5028366;28;20044;-60
2021/09/28 06:42:37;;;;;;;17.80;16.33;;;;;;;;;;5028525;28;20428;-61
2021/09/28 06:45:04;;;;;;;18.88;17.08;;;;;;;;;;5022502;28;20069;-60
2021/09/28 06:47:31;;;;;;;18.02;16.10;;;;;;;;;;5022642;28;20048;-60
2021/09/28 06:49:58;;;;;;;18.63;16.73;;;;;;;;;;5026680;28;20065;-61
2021/09/28 06:52:24;;;;;;;19.45;17.08;;;;;;;;;;5028252;28;20052;-61
2021/09/28 06:54:51;;;;;;;17.52;15.88;;;;;;;;;;5026257;28;20100;-60
2021/09/28 06:57:18;;;;;;;19.38;17.20;;;;;;;;;;5027789;28;20049;-61
2021/09/28 06:59:45;;;;;;;18.15;16.00;;;;;;;;;;5026658;28;20460;-61
2021/09/28 07:02:14;;;;;;;20.40;16.95;;;;;;;;;;5025249;28;20033;-61
2021/09/28 07:04:41;;;;;;;20.23;15.77;;;;;;;;;;5027095;28;20041;-60
2021/09/28 07:07:08;;;;;;;19.88;15.50;;;;;;;;;;5027370;28;20568;-61
2021/09/28 07:09:35;;;;;;;25.48;15.32;;;;;;;;;;5026096;28;20422;-60
2021/09/28 07:12:02;;;;;;;17.85;16.08;;;;;;;;;;5028234;28;20049;-60
2021/09/28 07:14:28;;;;;;;17.40;15.05;;;;;;;;;;5029012;28;20048;-60
2021/09/28 07:16:55;;;;;;;18.90;17.13;;;;;;;;;;5028017;28;20029;-60
2021/09/28 07:19:22;;;;;;;15.02;13.88;;;;;;;;;;5021286;28;20059;-60
2021/09/28 07:21:49;;;;;;;18.20;16.35;;;;;;;;;;5027297;28;20152;-59
2021/09/28 07:24:15;;;;;;;18.63;16.70;;;;;;;;;;5028223;28;20046;-60
2021/09/28 07:26:42;;;;;;;19.13;15.02;;;;;;;;;;5029076;28;20049;-60
2021/09/28 07:29:09;;;;;;;25.27;16.25;;;;;;;;;;5024176;28;20099;-60
2021/09/28 07:31:36;;;;;;;17.33;15.38;;;;;;;;;;5018398;28;20045;-60
2021/09/28 07:34:03;;;;;;;17.73;14.10;;;;;;;;;;5028368;28;20069;-60
2021/09/28 07:36:30;;;;;;;15.45;13.95;;;;;;;;;;5026880;28;20033;-60
2021/09/28 07:38:56;;;;;;;17.80;16.00;;;;;;;;;;5032202;28;20033;-60
2021/09/28 07:41:23;;;;;;;17.52;15.38;;;;;;;;;;5030033;28;20049;-59
2021/09/28 07:43:50;;;;;;;18.90;15.02;;;;;;;;;;5022399;28;20061;-60
2021/09/28 07:46:16;;;;;;;15.88;14.30;;;;;;;;;;5029086;28;20041;-60
2021/09/28 07:48:45;;;;;;;17.27;15.07;;;;;;;;;;5030218;28;20046;-59
2021/09/28 07:51:12;;;;;;;16.63;14.77;;;;;;;;;;5029079;28;20049;-59
2021/09/28 07:53:39;;;;;;;17.48;14.82;;;;;;;;;;5021991;28;20095;-59
2021/09/28 07:56:05;;;;;;;15.52;13.93;;;;;;;;;;5028016;28;20093;-59
2021/09/28 07:58:32;;;;;;;16.08;14.40;;;;;;;;;;5026907;28;20103;-59
2021/09/28 08:00:59;;;;;;;16.48;14.82;;;;;;;;;;5019463;28;20038;-59
2021/09/28 08:03:26;;;;;;;17.52;14.10;;;;;;;;;;5031712;28;20121;-58
2021/09/28 08:05:53;;;;;;;18.10;14.07;;;;;;;;;;5028651;28;20152;-59
2021/09/28 08:08:19;;;;;;;16.25;14.75;;;;;;;;;;5032015;28;20590;-58
2021/09/28 08:10:46;;;;;;;15.30;13.65;;;;;;;;;;5029153;28;20045;-59
2021/09/28 08:13:13;;;;;;;17.45;15.02;;;;;;;;;;5019143;28;20549;-59
2021/09/28 08:15:40;;;;;;;16.23;14.77;;;;;;;;;;5030337;28;20041;-58
2021/09/28 08:18:07;;;;;;;16.33;14.43;;;;;;;;;;5030111;28;20103;-59
2021/09/28 08:20:34;;;;;;;14.30;13.00;;;;;;;;;;5030724;28;20352;-59
2021/09/28 08:23:01;;;;;;;13.27;12.18;;;;;;;;;;5029989;28;20060;-59
2021/09/28 08:25:48;;;;;;;12.27;11.48;;;;;;;;;;5022959;28;20050;-59
2021/09/28 08:31:02;;;;;;;12.07;11.27;;;;;;;;;;5027889;28;20099;-58
2021/09/28 08:33:33;;;;;;;12.60;11.50;;;;;;;;;;5031908;28;20038;-58
2021/09/28 08:36:00;;;;;;;14.90;11.30;;;;;;;;;;5030088;28;20041;-58
2021/09/28 08:38:28;;;;;;;12.77;11.77;;;;;;;;;;5030810;28;20125;-58
2021/09/28 08:40:56;;;;;;;9.82;9.07;;;;;;;;;;5026435;28;20064;-59
2021/09/28 08:43:22;;;;;;;9.38;8.43;;;;;;;;;;5020767;28;20054;-59
2021/09/28 08:45:49;;;;;;;7.85;7.45;;;;;;;;;;5029480;28;20566;-59
2021/09/28 08:48:16;;;;;;;12.27;9.50;;;;;;;;;;5027826;28;20060;-59
2021/09/28 08:50:50;;;;;;;9.02;8.40;;;;;;;;;;5029870;28;20092;-59
2021/09/28 08:53:18;;;;;;;7.85;7.50;;;;;;;;;;5030277;28;20120;-58
2021/09/28 08:55:45;;;;;;;7.18;6.88;;;;;;;;;;5030530;28;20068;-59
2021/09/28 08:58:19;;;;;;;8.68;8.02;;;;;;;;;;5029578;28;20133;-58
2021/09/28 09:00:46;;;;;;;8.73;8.10;;;;;;;;;;5028681;28;20087;-58
2021/09/28 09:03:25;;;;;;;6.53;6.22;;;;;;;;;;5029279;28;20492;-58
2021/09/28 09:05:52;;;;;;;7.35;6.95;;;;;;;;;;5029819;28;20041;-59
2021/09/28 09:08:24;;;;;;;9.30;8.45;;;;;;;;;;5027660;28;20693;-58
2021/09/28 09:11:02;;;;;;;7.20;6.93;;;;;;;;;;5025325;28;20046;-58
2021/09/28 09:13:33;;;;;;;5.85;5.55;;;;;;;;;;5027023;28;20092;-58
2021/09/28 09:16:00;;;;;;;5.50;5.20;;;;;;;;;;5029116;28;20057;-58
2021/09/28 09:18:27;;;;;;;4.13;3.95;;;;;;;;;;5028186;28;20045;-59
2021/09/28 09:20:57;;;;;;;3.65;3.55;;;;;;;;;;5021718;28;20040;-58
2021/09/28 09:23:26;;;;;;;2.85;2.75;;;;;;;;;;5018339;28;20549;-59
2021/09/28 09:26:00;;;;;;;3.03;2.92;;;;;;;;;;5023634;28;20033;-58
2021/09/28 09:28:34;;;;;;;2.25;2.15;;;;;;;;;;5027802;28;20068;-59
2021/09/28 09:31:10;;;;;;;2.70;2.60;;;;;;;;;;5029422;28;20374;-58
2021/09/28 09:33:40;;;;;;;2.63;2.53;;;;;;;;;;5029822;28;20441;-59
2021/09/28 09:36:08;;;;;;;3.55;3.35;;;;;;;;;;5017590;28;20066;-59
2021/09/28 09:38:42;;;;;;;3.08;2.97;;;;;;;;;;5025819;28;20037;-58
2021/09/28 09:41:09;;;;;;;2.53;2.42;;;;;;;;;;5027934;28;20595;-60
2021/09/28 09:43:36;;;;;;;2.17;1.73;;;;;;;;;;5025071;28;21481;-59
2021/09/28 09:46:10;;;;;;;2.60;2.50;;;;;;;;;;5022837;28;20046;-59
2021/09/28 09:48:38;;;;;;;1.70;1.60;;;;;;;;;;5036276;28;20044;-59
2021/09/28 09:51:07;;;;;;;1.77;1.67;;;;;;;;;;5027655;28;20068;-59
2021/09/28 09:53:35;;;;;;;2.17;1.92;;;;;;;;;;5025912;28;20034;-58
2021/09/28 09:56:02;;;;;;;1.85;1.85;;;;;;;;;;5026581;28;20037;-58
2021/09/28 09:58:30;;;;;;;1.95;1.85;;;;;;;;;;5028735;28;20092;-59
2021/09/28 10:00:58;;;;;;;2.10;2.00;;;;;;;;;;5024119;28;20409;-59
2021/09/28 10:03:25;;;;;;;2.30;2.15;;;;;;;;;;5026215;28;20042;-59
2021/09/28 10:05:51;;;;;;;2.20;2.10;;;;;;;;;;5026820;28;20040;-58
2021/09/28 10:08:18;;;;;;;2.47;2.38;;;;;;;;;;5027482;28;20041;-59
2021/09/28 10:10:53;;;;;;;1.88;1.77;;;;;;;;;;5028032;28;20063;-58
2021/09/28 10:13:39;;;;;;;4.53;2.55;;;;;;;;;;5036071;28;20041;-58
2021/09/28 10:16:25;;;;;;;2.60;2.38;;;;;;;;;;5026101;28;20046;-60
2021/09/28 10:18:51;;;;;;;2.55;2.45;;;;;;;;;;5013339;28;20042;-60
2021/09/28 10:21:38;;;;;;;5.00;2.42;;;;;;;;;;5025262;28;20033;-60
2021/09/28 10:24:24;;;;;;;2.10;2.00;;;;;;;;;;5018908;28;20103;-60
2021/09/28 10:27:00;;;;;;;2.17;1.95;;;;;;;;;;5041622;28;20102;-59
2021/09/28 10:29:40;;;;;;;1.70;1.60;;;;;;;;;;5041894;28;20056;-58
2021/09/28 10:32:22;;;;;;;2.03;1.42;;;;;;;;;;5043115;28;20061;-59
2021/09/28 10:35:08;;;;;;;1.90;1.38;;;;;;;;;;5030223;28;20053;-58
2021/09/28 10:37:50;;;;;;;1.20;1.10;;;;;;;;;;5040855;28;20453;-58
2021/09/28 10:40:20;;;;;;;1.02;1.00;;;;;;;;;;5043889;28;20072;-59
2021/09/28 10:43:02;;;;;;;3.22;0.90;;;;;;;;;;5041986;28;20047;-59
2021/09/28 10:45:29;;;;;;;0.80;0.80;;;;;;;;;;5040194;28;20061;-58
2021/09/28 10:47:56;;;;;;;0.80;0.80;;;;;;;;;;5045252;28;20108;-59
2021/09/28 10:50:24;;;;;;;0.90;0.90;;;;;;;;;;5040863;28;20089;-59
2021/09/28 10:52:53;;;;;;;1.58;0.90;;;;;;;;;;5040595;28;20049;-59
2021/09/28 10:55:24;;;;;;;4.63;1.20;;;;;;;;;;5038139;28;20390;-58
2021/09/28 10:57:53;;;;;;;1.00;1.00;;;;;;;;;;5043067;28;20589;-59
2021/09/28 11:00:21;;;;;;;1.10;1.00;;;;;;;;;;5044936;28;20037;-60
2021/09/28 11:02:51;;;;;;;3.00;0.90;;;;;;;;;;5040390;28;20119;-59
2021/09/28 11:05:38;;;;;;;1.17;1.00;;;;;;;;;;5024665;28;20106;-60
2021/09/28 11:08:06;;;;;;;0.65;0.65;;;;;;;;;;5027950;28;20042;-58
2021/09/28 11:10:33;;;;;;;0.60;0.60;;;;;;;;;;5024633;28;20084;-59
2021/09/28 11:13:05;;;;;;;2.00;1.80;;;;;;;;;;5030783;28;20069;-59
2021/09/28 11:15:33;;;;;;;2.70;0.70;;;;;;;;;;5026792;28;20041;-58
2021/09/28 11:18:13;;;;;;;0.70;0.70;;;;;;;;;;5027952;28;20049;-60
2021/09/28 11:20:40;;;;;;;0.73;0.73;;;;;;;;;;5018727;28;20045;-59
2021/09/28 11:23:08;;;;;;;1.58;0.95;;;;;;;;;;5032574;28;20045;-59
2021/09/28 11:25:35;;;;;;;0.60;0.60;;;;;;;;;;5031499;28;20108;-58
2021/09/28 11:28:07;;;;;;;1.05;0.60;;;;;;;;;;5027453;28;20128;-59
2021/09/28 11:30:35;;;;;;;0.60;0.60;;;;;;;;;;5025245;28;20050;-59
2021/09/28 11:33:03;;;;;;;2.28;0.80;;;;;;;;;;5021997;28;20083;-59
2021/09/28 11:35:30;;;;;;;1.38;1.00;;;;;;;;;;5027507;28;20076;-58
2021/09/28 11:38:01;;;;;;;1.05;0.77;;;;;;;;;;5028318;28;20034;-59
2021/09/28 11:40:35;;;;;;;1.55;0.80;;;;;;;;;;5022899;28;20061;-59
2021/09/28 11:43:16;;;;;;;1.30;1.08;;;;;;;;;;5030396;28;20045;-58
2021/09/28 11:45:44;;;;;;;0.75;0.75;;;;;;;;;;5028297;28;20033;-58
2021/09/28 11:48:12;;;;;;;0.70;0.70;;;;;;;;;;5014739;28;20061;-58
2021/09/28 11:50:38;;;;;;;0.70;0.70;;;;;;;;;;5030302;28;20464;-59
2021/09/28 11:53:09;;;;;;;0.70;0.70;;;;;;;;;;5031682;28;20040;-59
2021/09/28 11:55:36;;;;;;;0.80;0.80;;;;;;;;;;5023982;28;20048;-58
2021/09/28 11:58:03;;;;;;;0.80;0.80;;;;;;;;;;5031336;28;20140;-58
2021/09/28 12:00:30;;;;;;;1.02;0.90;;;;;;;;;;5018427;28;20516;-58
2021/09/28 12:03:05;;;;;;;1.00;0.90;;;;;;;;;;5028133;28;20034;-58
2021/09/28 12:08:24;;;;;;;0.80;0.80;;;;;;;;;;5029057;28;20072;-59
2021/09/28 12:10:51;;;;;;;0.90;0.90;;;;;;;;;;5024763;28;20052;-59
2021/09/28 12:13:18;;;;;;;1.10;0.85;;;;;;;;;;5027464;28;20103;-59
2021/09/28 12:16:02;;;;;;;0.80;0.80;;;;;;;;;;5030624;28;20060;-59
2021/09/28 12:18:29;;;;;;;0.73;0.70;;;;;;;;;;5028898;28;20298;-59
2021/09/28 12:21:17;;;;;;;0.70;0.70;;;;;;;;;;5030357;28;20164;-58
2021/09/28 12:23:44;;;;;;;4.00;0.70;;;;;;;;;;5028676;28;20033;-59
2021/09/28 12:26:25;;;;;;;0.60;0.60;;;;;;;;;;5030217;28;20124;-59
2021/09/28 12:28:52;;;;;;;0.60;0.60;;;;;;;;;;5030993;28;20034;-58
2021/09/28 12:31:31;;;;;;;0.70;0.70;;;;;;;;;;5028672;28;20042;-59
2021/09/28 12:33:58;;;;;;;0.70;0.70;;;;;;;;;;5027921;28;20471;-58
2021/09/28 12:36:24;;;;;;;1.33;0.60;;;;;;;;;;5017501;28;20049;-58
2021/09/28 12:39:08;;;;;;;0.70;0.70;;;;;;;;;;5026063;28;20033;-58
2021/09/28 12:41:53;;;;;;;0.70;0.70;;;;;;;;;;5024449;28;20104;-59
2021/09/28 12:44:23;;;;;;;0.60;0.60;;;;;;;;;;5026858;28;20048;-58
2021/09/28 12:46:50;;;;;;;0.60;0.60;;;;;;;;;;5026948;28;20443;-59
2021/09/28 12:49:27;;;;;;;1.48;1.17;;;;;;;;;;5023698;28;20088;-59
2021/09/28 12:51:54;;;;;;;0.60;0.60;;;;;;;;;;5026634;28;20463;-59
2021/09/28 12:54:22;;;;;;;0.50;0.50;;;;;;;;;;5023052;28;20034;-59
2021/09/28 12:56:49;;;;;;;1.58;0.50;;;;;;;;;;5030902;28;20077;-59
2021/09/28 12:59:16;;;;;;;0.60;0.60;;;;;;;;;;5024571;28;20477;-59
2021/09/28 13:01:44;;;;;;;0.57;0.57;;;;;;;;;;5028602;28;20065;-59
2021/09/28 13:04:15;;;;;;;0.50;0.50;;;;;;;;;;5030573;28;20040;-59
2021/09/28 13:06:44;;;;;;;0.60;0.60;;;;;;;;;;5027537;28;20040;-58
2021/09/28 13:09:11;;;;;;;0.82;0.60;;;;;;;;;;5024088;28;20053;-59
2021/09/28 13:11:38;;;;;;;0.60;0.60;;;;;;;;;;5022780;28;20037;-59
2021/09/28 13:14:05;;;;;;;0.82;0.82;;;;;;;;;;5030704;28;20088;-59
2021/09/28 13:16:32;;;;;;;0.80;0.50;;;;;;;;;;5029531;28;20068;-58
2021/09/28 13:18:59;;;;;;;0.70;0.70;;;;;;;;;;5027850;28;20535;-59
2021/09/28 13:21:26;;;;;;;0.60;0.60;;;;;;;;;;5028563;28;20084;-58
2021/09/28 13:23:53;;;;;;;3.35;0.70;;;;;;;;;;5023274;28;20168;-58
2021/09/28 13:26:19;;;;;;;1.85;0.80;;;;;;;;;;5029154;28;20076;-59
2021/09/28 13:28:46;;;;;;;0.88;0.50;;;;;;;;;;5026232;28;20042;-59
2021/09/28 13:31:13;;;;;;;0.60;0.60;;;;;;;;;;5030377;28;20045;-58
2021/09/28 13:33:40;;;;;;;1.95;0.60;;;;;;;;;;5030720;28;20053;-58
2021/09/28 13:36:27;;;;;;;0.77;0.60;;;;;;;;;;5028048;28;20444;-58
2021/09/28 13:38:54;;;;;;;0.70;0.60;;;;;;;;;;5015774;28;20034;-58
2021/09/28 13:41:21;;;;;;;0.68;0.68;;;;;;;;;;5027069;28;20081;-58
2021/09/28 13:43:48;;;;;;;1.45;0.70;;;;;;;;;;5027876;28;20592;-58
2021/09/28 13:46:19;;;;;;;0.60;0.60;;;;;;;;;;5019885;28;20045;-58
2021/09/28 13:48:46;;;;;;;0.55;0.55;;;;;;;;;;5023797;28;20048;-58
2021/09/28 13:51:13;;;;;;;0.60;0.60;;;;;;;;;;5017559;28;20149;-58
2021/09/28 13:53:40;;;;;;;0.60;0.60;;;;;;;;;;5024538;28;20053;-58
2021/09/28 13:56:07;;;;;;;0.70;0.70;;;;;;;;;;5027720;28;20046;-57
2021/09/28 13:58:47;;;;;;;1.25;0.60;;;;;;;;;;5028879;28;20478;-57
2021/09/28 14:01:14;;;;;;;0.60;0.60;;;;;;;;;;5029009;28;20065;-58
2021/09/28 14:03:41;;;;;;;0.60;0.60;;;;;;;;;;5020722;28;20049;-59
2021/09/28 14:06:08;;;;;;;1.48;0.60;;;;;;;;;;5025640;28;20037;-58
2021/09/28 14:08:34;;;;;;;0.50;0.50;;;;;;;;;;5029763;28;20045;-58
2021/09/28 14:11:01;;;;;;;0.60;0.50;;;;;;;;;;5028942;28;20049;-58
2021/09/28 14:13:28;;;;;;;0.50;0.50;;;;;;;;;;5027924;28;20041;-57
2021/09/28 14:15:55;;;;;;;0.60;0.60;;;;;;;;;;5024791;28;20106;-58
2021/09/28 14:18:22;;;;;;;0.75;0.50;;;;;;;;;;5022597;28;20038;-58
2021/09/28 14:20:49;;;;;;;0.55;0.55;;;;;;;;;;5029028;28;20488;-59
2021/09/28 14:23:15;;;;;;;0.50;0.50;;;;;;;;;;5027353;28;20033;-58
2021/09/28 14:25:42;;;;;;;0.60;0.60;;;;;;;;;;5027786;28;20116;-57
2021/09/28 14:28:09;;;;;;;0.55;0.55;;;;;;;;;;5028079;28;20045;-59
2021/09/28 14:30:36;;;;;;;0.50;0.50;;;;;;;;;;5027297;28;20071;-59
2021/09/28 14:33:03;;;;;;;0.50;0.50;;;;;;;;;;5016682;28;20050;-58
2021/09/28 14:35:29;;;;;;;0.50;0.50;;;;;;;;;;5023617;28;20046;-58
2021/09/28 14:38:04;;;;;;;0.50;0.50;;;;;;;;;;5027596;28;20045;-58